Latest Weather Observations for Williamtown

IDN60801

Issued at 8:23 am EDT Sunday 20 January 2019 (issued every 10 minutes, with the page automatically refreshed every 10 minutes)

About weather observations | Map of weather stations | Latest weather observations for NSW | Other Formats
Station Details ID: 061078 Name: WILLIAMTOWN RAAF Lat: -32.79 Lon: 151.84 Height: 7.5 m
Data from the previous 72 hours. | See also: Recent months at Williamtown
Date/Time
EDT
Temp
°C
App
Temp
°C
Dew
Point
°C
Rel
Hum
%
Delta-T
°C
Wind Press
QNH
hPa
Press
MSL
hPa
Rain since
9am
mm
Dir  Spd
km/h
Gust
km/h
Spd
kts
Gust
kts
20/08:00am 21.2 22.4 20.7 97 0.3 S 15 19 8 10 1020.1 1020.0 2.2
20/07:53am 21.2 22.4 20.7 97 0.3 S 15 20 8 11 1020.0 1019.9 2.2
20/07:30am 21.0 22.1 20.5 97 0.3 SSW 15 17 8 9 1019.9 1019.8 2.2
20/07:00am 20.9 21.6 20.4 97 0.3 SSW 17 22 9 12 1019.6 1019.5 2.2
20/06:50am 20.9 21.2 20.4 97 0.3 S 19 26 10 14 1019.5 1019.4 2.2
20/06:30am 21.1 21.3 20.6 97 0.3 SSW 20 26 11 14 1019.3 1019.2 2.2
20/06:00am 21.2 22.4 20.7 97 0.3 SSW 15 20 8 11 1019.1 1019.0 2.2
20/05:47am 21.3 22.6 20.8 97 0.3 SSW 15 20 8 11 1019.0 1018.9 2.2
20/05:30am 21.3 22.6 20.8 97 0.3 SSW 15 19 8 10 1018.9 1018.8 2.2
20/05:12am 21.4 23.2 21.1 98 0.2 SSW 13 20 7 11 1018.8 1018.7 2.2
20/05:00am 21.4 23.6 21.1 98 0.2 SSW 11 15 6 8 1018.7 1018.6 2.2
20/04:30am 21.3 23.0 21.0 98 0.2 SSW 13 19 7 10 1018.7 1018.6 2.2
20/04:20am 21.4 22.8 21.1 98 0.2 SSW 15 19 8 10 1018.6 1018.5 2.2
20/04:00am 21.4 22.8 21.1 98 0.2 SSW 15 19 8 10 1018.7 1018.6 2.2
20/03:30am 21.4 22.8 21.1 98 0.2 SSW 15 20 8 11 1018.8 1018.7 2.2
20/03:26am 21.4 22.8 21.1 98 0.2 SSW 15 20 8 11 1018.7 1018.6 2.2
20/03:06am 21.5 22.6 21.2 98 0.2 S 17 20 9 11 1018.7 1018.6 2.2
20/03:00am 21.5 22.6 21.2 98 0.2 S 17 20 9 11 1018.8 1018.7 2.2
20/02:46am 21.4 22.0 21.1 98 0.2 S 19 26 10 14 1018.9 1018.8 2.2
20/02:43am 21.5 22.2 21.2 98 0.2 S 19 26 10 14 1018.9 1018.8 2.2
20/02:30am 21.5 22.2 21.2 98 0.2 SSW 19 26 10 14 1018.9 1018.8 2.2
20/02:00am 21.4 22.0 21.1 98 0.2 S 19 24 10 13 1019.0 1018.9 2.2
20/01:30am 21.5 22.2 21.2 98 0.2 S 19 28 10 15 1019.4 1019.3 2.0
20/01:00am 21.3 21.9 21.0 98 0.2 S 19 28 10 15 1019.7 1019.6 2.0
20/12:30am 21.4 22.0 21.1 98 0.2 SSW 19 24 10 13 1020.1 1020.0 2.0
20/12:00am 21.3 21.9 21.0 98 0.2 SSW 19 26 10 14 1020.3 1020.2 1.8
 
Date/Time
EDT
Temp
°C
App
Temp
°C
Dew
Point
°C
Rel
Hum
%
Delta-T
°C
Wind Press
QNH
hPa
Press
MSL
hPa
Rain since
9am
mm
Dir  Spd
km/h
Gust
km/h
Spd
kts
Gust
kts
19/11:30pm 21.3 21.9 21.0 98 0.2 SSW 19 26 10 14 1020.5 1020.4 1.4
19/11:00pm 21.5 22.6 21.2 98 0.2 SSW 17 26 9 14 1020.4 1020.3 1.0
19/10:30pm 21.5 22.5 21.0 97 0.3 SSW 17 20 9 11 1020.4 1020.3 0.6
19/10:00pm 21.4 22.3 20.9 97 0.3 SSW 17 22 9 12 1020.3 1020.2 0.0
19/09:30pm 21.4 21.8 20.9 97 0.3 SSW 20 30 11 16 1019.7 1019.6 0.0
19/09:00pm 21.3 21.5 20.6 96 0.5 SSW 20 28 11 15 1019.4 1019.3 0.0
19/08:30pm 21.4 22.2 20.7 96 0.5 SSW 17 24 9 13 1019.3 1019.2 0.0
19/08:00pm 21.6 22.5 20.8 95 0.5 SSW 17 22 9 12 1019.2 1019.1 0.0
19/07:30pm 21.8 22.0 20.6 93 0.8 SSW 20 32 11 17 1018.5 1018.4 0.0
19/07:09pm 22.5 22.0 20.0 86 1.6 SSW 22 33 12 18 1018.3 1018.2 0.0
19/07:00pm 22.8 22.6 19.8 83 1.9 SSW 20 30 11 16 1018.1 1018.0 0.0
19/06:30pm 23.2 21.9 19.8 81 2.2 SSW 26 35 14 19 1017.3 1017.2 0.0
19/06:00pm 23.1 20.9 19.5 80 2.3 SSW 30 43 16 23 1016.7 1016.6 0.0
19/05:30pm 23.4 21.2 19.5 79 2.5 SSW 30 41 16 22 1016.5 1016.4 0.0
19/05:00pm 23.4 21.2 19.5 79 2.5 SSW 30 39 16 21 1016.6 1016.5 0.0
19/04:30pm 23.9 21.2 19.6 77 2.8 SSW 33 48 18 26 1016.5 1016.4 0.0
19/04:00pm 24.1 21.1 19.8 77 2.8 SSW 35 48 19 26 1016.4 1016.3 0.0
19/03:34pm 24.9 21.5 19.9 74 3.2 SSW 37 56 20 30 1016.2 1016.1 0.0
19/03:30pm 25.1 21.5 20.1 74 3.2 S 39 52 21 28 1016.2 1016.1 0.0
19/03:00pm 25.1 20.7 20.1 74 3.2 SSW 43 59 23 32 1016.3 1016.2 0.0
19/02:49pm 27.0 24.2 21.1 70 3.9 SSW 37 56 20 30 1016.1 1016.0 0.0
19/02:30pm 26.5 22.2 20.3 68 4.1 S 43 57 23 31 1015.9 1015.8 0.0
19/02:02pm 26.6 22.5 20.7 70 3.9 SSW 43 61 23 33 1015.9 1015.8 0.0
19/02:00pm 26.7 22.5 20.5 69 4.1 S 43 56 23 30 1016.0 1015.9 0.0
19/01:39pm 25.1 22.1 21.4 80 2.4 S 39 57 21 31 1015.9 1015.8 0.0
19/01:30pm 26.2 23.3 21.6 76 3.1 S 39 56 21 30 1016.0 1015.9 0.0
19/01:26pm 26.8 24.5 22.0 75 3.2 S 37 56 20 30 1016.0 1015.9 0.0
19/01:15pm 27.1 23.4 21.6 72 3.7 SSW 43 59 23 32 1015.8 1015.7 0.0
19/01:00pm 26.9 22.6 21.4 72 3.7 S 46 57 25 31 1015.7 1015.6 0.0
19/12:46pm 28.2 24.3 21.2 65 4.7 S 43 61 23 33 1015.7 1015.6 0.0
19/12:30pm 27.5 23.4 20.8 67 4.4 S 43 56 23 30 1015.5 1015.4 0.0
19/12:11pm 27.6 25.0 22.1 72 3.7 S 39 57 21 31 1015.3 1015.2 0.0
19/12:00pm 27.6 25.9 21.4 69 4.1 S 32 46 17 25 1015.2 1015.1 0.0
19/11:30am 28.1 26.8 21.4 67 4.5 S 30 39 16 21 1014.8 1014.7 0.0
19/11:16am 29.1 27.9 21.6 64 5.0 S 30 41 16 22 1014.6 1014.5 0.0
19/11:00am 28.4 29.9 21.2 65 4.8 SE 15 22 8 12 1014.0 1013.9 0.0
19/10:30am 29.2 30.8 21.4 63 5.2 SSE 15 20 8 11 1014.4 1014.3 0.0
19/10:00am 29.0 31.0 21.5 64 5.0 ESE 13 17 7 9 1014.1 1014.0 0.0
19/09:30am 28.2 30.3 21.0 65 4.8 SSE 11 17 6 9 1014.4 1014.3 0.0
19/09:00am 28.4 30.5 20.9 64 5.0 S 11 19 6 10 1014.5 1014.4 0.0
19/08:30am 26.3 26.6 20.8 71 3.6 S 20 28 11 15 1014.4 1014.3 0.0
19/08:00am 25.8 26.2 21.0 75 3.2 SSW 20 32 11 17 1014.1 1014.0 0.0
19/07:30am 24.6 24.5 20.7 79 2.6 S 22 33 12 18 1013.6 1013.5 0.0
19/07:00am 23.8 25.6 20.3 81 2.3 S 11 13 6 7 1013.1 1013.0 0.0
19/06:30am 23.2 25.4 20.3 84 1.9 SE 9 11 5 6 1012.2 1012.1 0.0
19/06:00am 23.2 26.9 20.0 82 2.1 CALM 0 0 0 0 1012.1 1012.0 0.0
19/05:30am 23.4 25.9 20.2 82 2.1 SE 7 9 4 5 1011.5 1011.4 0.0
19/05:00am 23.5 25.1 20.0 81 2.3 SSE 11 15 6 8 1011.6 1011.5 0.0
19/04:30am 23.3 25.0 20.1 82 2.1 SSE 11 17 6 9 1011.5 1011.4 0.0
19/04:00am 24.0 26.7 20.3 80 2.4 ENE 6 7 3 4 1010.7 1010.6 0.0
19/03:30am 24.1 25.6 19.8 77 2.8 SE 11 13 6 7 1010.6 1010.5 0.0
19/03:00am 25.2 26.4 19.8 72 3.5 SSE 13 17 7 9 1010.3 1010.2 0.0
19/02:30am 26.2 27.7 19.8 68 4.2 WSW 11 30 6 16 1010.4 1010.3 0.0
19/02:00am 27.8 29.7 19.8 61 5.2 NE 9 15 5 8 1010.0 1009.9 0.0
19/01:30am 27.3 29.4 19.4 62 5.1 N 7 11 4 6 1009.5 1009.4 0.0
19/01:00am 27.4 29.3 19.7 63 5.0 N 9 13 5 7 1009.2 1009.1 0.0
19/12:30am 27.5 29.6 20.1 64 4.8 NNE 9 13 5 7 1009.2 1009.1 0.0
19/12:00am 27.7 29.6 20.5 65 4.7 NNE 11 17 6 9 1009.2 1009.1 0.0
 
Date/Time
EDT
Temp
°C
App
Temp
°C
Dew
Point
°C
Rel
Hum
%
Delta-T
°C
Wind Press
QNH
hPa
Press
MSL
hPa
Rain since
9am
mm
Dir  Spd
km/h
Gust
km/h
Spd
kts
Gust
kts
18/11:30pm 27.8 29.3 20.6 65 4.7 NE 13 17 7 9 1009.1 1009.0 0.0
18/11:00pm 28.1 29.3 20.6 63 5.0 NE 15 19 8 10 1009.0 1008.9 0.0
18/10:30pm 28.6 29.8 20.6 62 5.3 NE 15 19 8 10 1009.0 1008.9 0.0
18/10:00pm 29.1 30.3 20.0 58 6.0 NE 13 20 7 11 1008.9 1008.8 0.0
18/09:30pm 29.8 30.3 19.2 53 6.9 NE 15 20 8 11 1008.6 1008.5 0.0
18/09:00pm 30.6 31.0 19.0 50 7.5 NE 15 19 8 10 1008.3 1008.3 0.0
18/08:30pm 31.1 31.0 18.8 48 8.0 NE 17 26 9 14 1008.0 1008.0 0.0
18/08:00pm 31.8 31.3 18.7 45 8.5 NE 19 28 10 15 1007.6 1007.6 0.0
18/07:30pm 32.9 32.5 19.4 45 8.9 NE 20 30 11 16 1007.1 1007.1 0.0
18/07:00pm 34.0 33.5 20.0 43 9.3 ENE 22 32 12 17 1006.9 1006.9 0.0
18/06:30pm 34.7 34.8 20.3 43 9.6 ENE 20 28 11 15 1006.6 1006.6 0.0
18/06:00pm 35.6 34.5 19.5 38 10.7 ENE 24 33 13 18 1006.7 1006.7 0.0
18/05:30pm 36.8 35.8 19.7 36 11.4 ENE 24 30 13 16 1007.0 1007.0 0.0
18/05:00pm 37.1 37.2 20.0 37 11.5 E 19 28 10 15 1007.3 1007.3 0.0
18/04:30pm 37.7 38.0 19.6 34 12.1 E 17 26 9 14 1007.7 1007.7 0.0
18/04:00pm 37.3 37.1 19.3 35 12.0 E 19 28 10 15 1008.0 1008.0 0.0
18/03:30pm 37.2 37.3 19.2 35 11.9 NNE 17 24 9 13 1008.5 1008.4 0.0
18/03:00pm 36.8 37.9 19.7 36 11.4 ESE 13 20 7 11 1009.0 1008.9 0.0
18/02:30pm 34.8 36.2 21.1 44 9.3 SE 15 20 8 11 1009.5 1009.4 0.0
18/02:00pm 33.8 34.7 21.6 49 8.3 ESE 19 24 10 13 1010.0 1009.9 0.0
18/01:30pm 32.8 34.2 21.0 50 7.9 ESE 15 20 8 11 1010.6 1010.5 0.0
18/01:00pm 32.2 33.1 20.8 51 7.6 SE 17 26 9 14 1011.1 1011.0 0.0
18/12:30pm 32.1 33.2 19.7 48 8.2 NW 13 19 7 10 1011.7 1011.6 0.0
18/12:00pm 30.5 31.5 19.5 51 7.2 NW 13 19 7 10 1012.1 1012.0 0.0
18/11:30am 29.4 30.7 19.4 55 6.5 NNW 11 17 6 9 1012.5 1012.4 0.0
18/11:00am 28.6 30.4 19.5 58 5.9 NNW 9 17 5 9 1013.0 1012.9 0.0
18/10:30am 27.5 29.4 19.8 63 5.0 WNW 9 13 5 7 1013.4 1013.3 0.0
18/10:00am 26.3 28.0 19.4 66 4.4 WNW 9 17 5 9 1013.7 1013.6 0.0
18/09:30am 25.9 27.2 19.3 67 4.2 WSW 11 15 6 8 1013.8 1013.7 0.0
18/09:00am 25.3 26.8 19.7 71 3.6 SW 11 17 6 9 1014.1 1014.0 0.0
18/08:52am 24.7 26.5 19.5 73 3.3 SW 9 17 5 9 1014.2 1014.1 0.0
18/08:30am 24.0 25.9 19.7 77 2.8 SW 9 13 5 7 1014.1 1014.0 0.0
18/08:00am 22.9 24.9 19.9 83 1.9 WSW 9 13 5 7 1013.8 1013.7 0.0
18/07:37am 22.6 24.7 20.1 86 1.6 SSW 9 11 5 6 1013.6 1013.5 0.0
18/07:30am 22.4 24.6 20.3 88 1.4 SW 9 11 5 6 1013.5 1013.4 0.0
18/07:00am 20.7 22.9 19.5 93 0.8 WSW 7 9 4 5 1013.3 1013.2 0.0
18/06:30am 19.9 22.3 18.7 93 0.7 WSW 4 7 2 4 1012.8 1012.7 0.0
18/06:00am 19.1 20.0 17.6 91 0.9 SSW 9 11 5 6 1012.0 1011.9 0.0
18/05:30am 19.8 20.9 18.1 90 1.1 W 9 15 5 8 1011.8 1011.7 0.0
18/05:00am 20.8 21.9 18.9 89 1.2 SE 11 13 6 7 1011.3 1011.2 0.0
18/04:30am 20.6 21.2 18.5 88 1.3 S 13 13 7 7 1010.7 1010.6 0.0
18/04:00am 20.2 21.0 18.1 88 1.3 S 11 15 6 8 1010.3 1010.2 0.0
18/03:30am 20.0 20.5 17.4 85 1.6 S 11 15 6 8 1010.1 1010.0 0.0
18/03:00am 21.3 22.1 18.1 82 2.0 SW 11 15 6 8 1009.7 1009.6 0.0
18/02:30am 23.4 24.0 18.5 74 3.1 NE 13 19 7 10 1009.0 1008.9 0.0
18/02:00am 23.5 23.3 18.6 74 3.1 ENE 17 26 9 14 1009.0 1008.9 0.0
18/01:30am 23.4 24.1 18.9 76 2.9 ENE 13 19 7 10 1009.1 1009.0 0.0
18/01:00am 23.8 24.7 19.3 76 2.9 ENE 13 19 7 10 1009.3 1009.2 0.0
18/12:30am 23.9 25.6 19.4 76 2.9 E 9 13 5 7 1009.5 1009.4 0.0
18/12:00am 24.2 26.0 19.5 75 3.0 ENE 9 13 5 7 1009.4 1009.3 0.0
 
Date/Time
EDT
Temp
°C
App
Temp
°C
Dew
Point
°C
Rel
Hum
%
Delta-T
°C
Wind Press
QNH
hPa
Press
MSL
hPa
Rain since
9am
mm
Dir  Spd
km/h
Gust
km/h
Spd
kts
Gust
kts
17/11:30pm 24.1 25.7 19.2 74 3.1 ENE 9 13 5 7 1009.3 1009.2 0.0
17/11:00pm 24.6 25.9 19.4 73 3.3 ENE 11 15 6 8 1009.2 1009.1 0.0
17/10:30pm 25.4 27.2 19.5 70 3.8 ENE 9 13 5 7 1009.1 1009.0 0.0
17/10:00pm 25.8 26.5 19.7 69 4.0 NE 15 20 8 11 1008.9 1008.8 0.0
17/09:30pm 26.3 26.9 19.4 66 4.5 NE 15 24 8 13 1008.8 1008.7 0.0
17/09:00pm 26.8 26.6 19.4 64 4.8 NE 19 26 10 14 1008.5 1008.4 0.0
17/08:30pm 27.4 27.1 19.5 62 5.1 ENE 20 32 11 17 1008.1 1008.1 0.0
17/08:00pm 28.5 27.8 19.4 57 5.9 ENE 22 30 12 16 1007.8 1007.8 0.0
17/07:30pm 29.5 28.8 19.5 55 6.5 ENE 22 32 12 17 1007.7 1007.7 0.0
17/07:00pm 30.0 28.9 19.4 53 6.9 NE 24 33 13 18 1007.5 1007.5 0.0
17/06:30pm 30.8 30.2 19.8 52 7.2 ENE 22 32 12 17 1007.5 1007.5 0.0
17/06:00pm 32.1 31.5 19.7 48 8.2 ENE 22 32 12 17 1007.2 1007.2 0.0
17/05:30pm 32.9 32.2 19.4 45 8.9 ENE 22 32 12 17 1007.0 1007.0 0.0
17/05:00pm 33.6 32.0 19.3 43 9.4 ENE 26 33 14 18 1007.2 1007.2 0.0
17/04:30pm 33.7 32.4 19.0 42 9.6 ENE 24 32 13 17 1007.3 1007.3 0.0
17/04:00pm 34.7 33.4 19.1 39 10.3 ENE 24 33 13 18 1007.7 1007.7 0.0
17/03:30pm 35.5 34.8 18.6 37 11.1 ENE 20 30 11 16 1008.1 1008.1 0.0
17/03:00pm 36.1 35.8 19.1 36 11.3 ENE 19 28 10 15 1008.3 1008.3 0.0
17/02:30pm 36.8 36.7 18.8 34 11.9 ENE 17 30 9 16 1008.8 1008.7 0.0
17/02:00pm 36.3 37.2 19.3 37 11.3 ENE 13 19 7 10 1009.1 1009.0 0.0
17/01:30pm 35.8 36.1 18.8 36 11.2 NE 15 30 8 16 1009.4 1009.3 0.0
17/01:00pm 35.4 36.7 19.3 38 10.7 ENE 11 19 6 10 1010.1 1010.0 0.0
17/12:30pm 34.2 35.4 19.8 42 9.6 NNE 13 20 7 11 1010.5 1010.4 0.0
17/12:00pm 32.8 34.3 19.7 46 8.7 NE 11 15 6 8 1010.9 1010.8 0.0
17/11:30am 32.2 34.6 20.8 51 7.6 N 9 15 5 8 1011.1 1011.0 0.0
17/11:00am 31.1 33.6 21.0 55 6.8 N 9 15 5 8 1011.6 1011.5 0.0
17/10:30am 29.1 31.1 20.8 61 5.5 NNE 11 17 6 9 1011.9 1011.8 0.0
17/10:00am 28.6 31.4 20.9 63 5.1 NNE 7 13 4 7 1012.1 1012.0 0.0
17/09:30am 28.5 31.7 21.3 65 4.8 NNE 6 11 3 6 1012.3 1012.2 0.0
17/09:00am 26.7 30.3 21.2 72 3.6 ENE 4 11 2 6 1012.6 1012.5 0.0
17/08:30am 25.4 29.2 20.9 76 3.0 SE 2 7 1 4 1012.8 1012.7 0.0

Other Formats:

Comma delimited format used in spreadsheet applications
http://www.bom.gov.au/fwo/IDN60801/IDN60801.94776.axf

JavaScript Object Notation format (JSON) in row-major order
http://www.bom.gov.au/fwo/IDN60801/IDN60801.94776.json